sensor_id;sensor_type;location;lat;lon;timestamp;P1;durP1;ratioP1;P2;durP2;ratioP2
68484;SDS011;55472;50.060;21.960;2023-07-20T00:02:02;8.05;;;3.00;;
68484;SDS011;55472;50.060;21.960;2023-07-20T00:04:31;8.00;;;3.53;;
68484;SDS011;55472;50.060;21.960;2023-07-20T00:06:57;6.13;;;3.33;;
68484;SDS011;55472;50.060;21.960;2023-07-20T00:09:26;7.88;;;3.63;;
68484;SDS011;55472;50.060;21.960;2023-07-20T00:11:52;9.23;;;3.47;;
68484;SDS011;55472;50.060;21.960;2023-07-20T00:14:19;7.20;;;3.53;;
68484;SDS011;55472;50.060;21.960;2023-07-20T00:16:45;9.50;;;3.78;;
68484;SDS011;55472;50.060;21.960;2023-07-20T00:19:14;7.75;;;3.70;;
68484;SDS011;55472;50.060;21.960;2023-07-20T00:21:41;7.07;;;3.45;;
68484;SDS011;55472;50.060;21.960;2023-07-20T00:24:08;9.13;;;3.80;;
68484;SDS011;55472;50.060;21.960;2023-07-20T00:26:34;8.23;;;2.97;;
68484;SDS011;55472;50.060;21.960;2023-07-20T00:29:00;6.20;;;3.25;;
68484;SDS011;55472;50.060;21.960;2023-07-20T00:31:27;6.38;;;3.15;;
68484;SDS011;55472;50.060;21.960;2023-07-20T00:33:54;8.30;;;3.13;;
68484;SDS011;55472;50.060;21.960;2023-07-20T00:36:20;7.60;;;3.20;;
68484;SDS011;55472;50.060;21.960;2023-07-20T00:38:47;6.72;;;3.33;;
68484;SDS011;55472;50.060;21.960;2023-07-20T00:41:13;7.82;;;3.42;;
68484;SDS011;55472;50.060;21.960;2023-07-20T00:43:40;5.90;;;2.85;;
68484;SDS011;55472;50.060;21.960;2023-07-20T00:46:06;9.80;;;3.78;;
68484;SDS011;55472;50.060;21.960;2023-07-20T00:48:33;9.20;;;3.30;;
68484;SDS011;55472;50.060;21.960;2023-07-20T00:51:00;7.03;;;3.38;;
68484;SDS011;55472;50.060;21.960;2023-07-20T00:53:27;5.63;;;2.67;;
68484;SDS011;55472;50.060;21.960;2023-07-20T00:55:54;6.03;;;2.85;;
68484;SDS011;55472;50.060;21.960;2023-07-20T00:58:20;7.35;;;3.13;;
68484;SDS011;55472;50.060;21.960;2023-07-20T01:00:47;7.50;;;3.30;;
68484;SDS011;55472;50.060;21.960;2023-07-20T01:03:13;6.28;;;3.15;;
68484;SDS011;55472;50.060;21.960;2023-07-20T01:08:21;5.80;;;3.03;;
68484;SDS011;55472;50.060;21.960;2023-07-20T01:11:01;6.15;;;2.95;;
68484;SDS011;55472;50.060;21.960;2023-07-20T01:13:37;12.10;;;3.27;;
68484;SDS011;55472;50.060;21.960;2023-07-20T01:16:04;7.60;;;3.28;;
68484;SDS011;55472;50.060;21.960;2023-07-20T01:18:30;7.50;;;3.38;;
68484;SDS011;55472;50.060;21.960;2023-07-20T01:20:59;6.22;;;3.30;;
68484;SDS011;55472;50.060;21.960;2023-07-20T01:29:20;7.97;;;3.30;;
68484;SDS011;55472;50.060;21.960;2023-07-20T01:31:36;7.13;;;3.25;;
68484;SDS011;55472;50.060;21.960;2023-07-20T01:34:04;6.85;;;3.30;;
68484;SDS011;55472;50.060;21.960;2023-07-20T01:36:34;6.78;;;3.20;;
68484;SDS011;55472;50.060;21.960;2023-07-20T01:39:03;7.77;;;3.37;;
68484;SDS011;55472;50.060;21.960;2023-07-20T01:41:30;6.63;;;3.00;;
68484;SDS011;55472;50.060;21.960;2023-07-20T01:43:59;5.75;;;3.08;;
68484;SDS011;55472;50.060;21.960;2023-07-20T01:46:26;7.28;;;3.58;;
68484;SDS011;55472;50.060;21.960;2023-07-20T01:48:52;7.05;;;2.97;;
68484;SDS011;55472;50.060;21.960;2023-07-20T01:51:19;7.37;;;3.07;;
68484;SDS011;55472;50.060;21.960;2023-07-20T01:53:45;6.15;;;3.10;;
68484;SDS011;55472;50.060;21.960;2023-07-20T01:56:12;6.82;;;3.30;;
68484;SDS011;55472;50.060;21.960;2023-07-20T01:58:38;8.65;;;3.58;;
68484;SDS011;55472;50.060;21.960;2023-07-20T02:01:04;6.57;;;3.13;;
68484;SDS011;55472;50.060;21.960;2023-07-20T02:03:30;9.23;;;3.23;;
68484;SDS011;55472;50.060;21.960;2023-07-20T02:05:57;7.70;;;3.30;;
68484;SDS011;55472;50.060;21.960;2023-07-20T02:08:23;8.38;;;3.10;;
68484;SDS011;55472;50.060;21.960;2023-07-20T02:10:49;6.80;;;3.00;;
68484;SDS011;55472;50.060;21.960;2023-07-20T02:13:16;8.07;;;2.78;;
68484;SDS011;55472;50.060;21.960;2023-07-20T02:15:42;7.80;;;3.27;;
68484;SDS011;55472;50.060;21.960;2023-07-20T02:18:08;6.13;;;2.67;;
68484;SDS011;55472;50.060;21.960;2023-07-20T02:20:35;5.82;;;3.15;;
68484;SDS011;55472;50.060;21.960;2023-07-20T02:23:01;7.03;;;3.33;;
68484;SDS011;55472;50.060;21.960;2023-07-20T02:25:27;6.13;;;3.28;;
68484;SDS011;55472;50.060;21.960;2023-07-20T02:27:55;9.07;;;3.60;;
68484;SDS011;55472;50.060;21.960;2023-07-20T02:30:21;6.50;;;3.17;;
68484;SDS011;55472;50.060;21.960;2023-07-20T02:32:48;8.82;;;3.20;;
68484;SDS011;55472;50.060;21.960;2023-07-20T02:35:14;6.05;;;3.13;;
68484;SDS011;55472;50.060;21.960;2023-07-20T02:37:41;6.43;;;3.40;;
68484;SDS011;55472;50.060;21.960;2023-07-20T02:40:07;7.75;;;3.22;;
68484;SDS011;55472;50.060;21.960;2023-07-20T02:42:35;5.45;;;3.00;;
68484;SDS011;55472;50.060;21.960;2023-07-20T02:45:04;7.43;;;2.97;;
68484;SDS011;55472;50.060;21.960;2023-07-20T02:47:31;6.85;;;3.10;;
68484;SDS011;55472;50.060;21.960;2023-07-20T02:49:57;7.93;;;3.10;;
68484;SDS011;55472;50.060;21.960;2023-07-20T02:52:23;7.40;;;3.20;;
68484;SDS011;55472;50.060;21.960;2023-07-20T02:54:49;6.22;;;3.10;;
68484;SDS011;55472;50.060;21.960;2023-07-20T02:57:16;7.15;;;3.25;;
68484;SDS011;55472;50.060;21.960;2023-07-20T02:59:42;9.35;;;3.35;;
68484;SDS011;55472;50.060;21.960;2023-07-20T03:02:08;5.90;;;2.90;;
68484;SDS011;55472;50.060;21.960;2023-07-20T03:04:37;8.32;;;3.03;;
68484;SDS011;55472;50.060;21.960;2023-07-20T03:07:04;5.43;;;2.97;;
68484;SDS011;55472;50.060;21.960;2023-07-20T03:09:30;8.00;;;3.20;;
68484;SDS011;55472;50.060;21.960;2023-07-20T03:11:57;7.28;;;3.40;;
68484;SDS011;55472;50.060;21.960;2023-07-20T03:14:23;7.37;;;3.40;;
68484;SDS011;55472;50.060;21.960;2023-07-20T03:16:49;6.10;;;3.47;;
68484;SDS011;55472;50.060;21.960;2023-07-20T03:19:15;6.97;;;3.38;;
68484;SDS011;55472;50.060;21.960;2023-07-20T03:21:41;6.72;;;3.20;;
68484;SDS011;55472;50.060;21.960;2023-07-20T03:24:08;5.45;;;3.15;;
68484;SDS011;55472;50.060;21.960;2023-07-20T03:26:35;7.77;;;3.33;;
68484;SDS011;55472;50.060;21.960;2023-07-20T03:29:02;7.75;;;3.15;;
68484;SDS011;55472;50.060;21.960;2023-07-20T03:31:29;6.95;;;3.25;;
68484;SDS011;55472;50.060;21.960;2023-07-20T03:33:55;8.32;;;3.50;;
68484;SDS011;55472;50.060;21.960;2023-07-20T03:36:22;6.93;;;3.40;;
68484;SDS011;55472;50.060;21.960;2023-07-20T03:38:48;10.37;;;3.50;;
68484;SDS011;55472;50.060;21.960;2023-07-20T03:41:15;7.38;;;3.17;;
68484;SDS011;55472;50.060;21.960;2023-07-20T03:43:41;7.13;;;3.25;;
68484;SDS011;55472;50.060;21.960;2023-07-20T03:46:08;8.73;;;3.28;;
68484;SDS011;55472;50.060;21.960;2023-07-20T03:48:34;6.03;;;3.33;;
68484;SDS011;55472;50.060;21.960;2023-07-20T03:51:00;8.73;;;3.33;;
68484;SDS011;55472;50.060;21.960;2023-07-20T03:53:26;6.95;;;3.25;;
68484;SDS011;55472;50.060;21.960;2023-07-20T03:55:53;6.45;;;3.15;;
68484;SDS011;55472;50.060;21.960;2023-07-20T03:58:20;7.85;;;3.42;;
68484;SDS011;55472;50.060;21.960;2023-07-20T04:00:47;9.50;;;3.78;;
68484;SDS011;55472;50.060;21.960;2023-07-20T04:03:16;9.53;;;3.97;;
68484;SDS011;55472;50.060;21.960;2023-07-20T04:05:43;9.18;;;3.40;;
68484;SDS011;55472;50.060;21.960;2023-07-20T04:08:10;6.43;;;3.30;;
68484;SDS011;55472;50.060;21.960;2023-07-20T04:10:37;6.70;;;3.50;;
68484;SDS011;55472;50.060;21.960;2023-07-20T04:13:03;7.68;;;3.40;;
68484;SDS011;55472;50.060;21.960;2023-07-20T04:15:30;6.40;;;3.60;;
68484;SDS011;55472;50.060;21.960;2023-07-20T04:17:56;7.50;;;3.45;;
68484;SDS011;55472;50.060;21.960;2023-07-20T04:20:23;7.78;;;3.50;;
68484;SDS011;55472;50.060;21.960;2023-07-20T04:22:49;8.65;;;3.72;;
68484;SDS011;55472;50.060;21.960;2023-07-20T04:25:16;6.95;;;3.40;;
68484;SDS011;55472;50.060;21.960;2023-07-20T04:27:45;7.73;;;3.70;;
68484;SDS011;55472;50.060;21.960;2023-07-20T04:30:11;5.93;;;3.10;;
68484;SDS011;55472;50.060;21.960;2023-07-20T04:32:38;7.03;;;3.60;;
68484;SDS011;55472;50.060;21.960;2023-07-20T04:35:16;8.00;;;3.80;;
68484;SDS011;55472;50.060;21.960;2023-07-20T04:38:03;7.53;;;3.70;;
68484;SDS011;55472;50.060;21.960;2023-07-20T04:40:29;7.47;;;3.40;;
68484;SDS011;55472;50.060;21.960;2023-07-20T04:42:55;7.78;;;3.72;;
68484;SDS011;55472;50.060;21.960;2023-07-20T04:45:21;8.68;;;3.80;;
68484;SDS011;55472;50.060;21.960;2023-07-20T04:47:49;7.63;;;3.45;;
68484;SDS011;55472;50.060;21.960;2023-07-20T04:50:16;8.30;;;3.83;;
68484;SDS011;55472;50.060;21.960;2023-07-20T04:52:42;9.57;;;3.67;;
68484;SDS011;55472;50.060;21.960;2023-07-20T04:55:08;9.77;;;3.67;;
68484;SDS011;55472;50.060;21.960;2023-07-20T04:57:34;8.73;;;3.80;;
68484;SDS011;55472;50.060;21.960;2023-07-20T05:00:01;10.93;;;3.83;;
68484;SDS011;55472;50.060;21.960;2023-07-20T05:02:28;9.00;;;4.00;;
68484;SDS011;55472;50.060;21.960;2023-07-20T05:04:54;11.98;;;4.38;;
68484;SDS011;55472;50.060;21.960;2023-07-20T05:07:20;11.13;;;4.57;;
68484;SDS011;55472;50.060;21.960;2023-07-20T05:09:47;8.02;;;3.92;;
68484;SDS011;55472;50.060;21.960;2023-07-20T05:12:13;10.48;;;3.78;;
68484;SDS011;55472;50.060;21.960;2023-07-20T05:14:39;9.03;;;3.50;;
68484;SDS011;55472;50.060;21.960;2023-07-20T05:17:07;8.75;;;3.60;;
68484;SDS011;55472;50.060;21.960;2023-07-20T05:19:33;9.25;;;3.58;;
68484;SDS011;55472;50.060;21.960;2023-07-20T05:21:59;8.52;;;3.90;;
68484;SDS011;55472;50.060;21.960;2023-07-20T05:24:25;8.27;;;3.60;;
68484;SDS011;55472;50.060;21.960;2023-07-20T05:26:51;10.40;;;3.83;;
68484;SDS011;55472;50.060;21.960;2023-07-20T05:29:17;8.18;;;3.65;;
68484;SDS011;55472;50.060;21.960;2023-07-20T05:31:43;7.22;;;3.45;;
68484;SDS011;55472;50.060;21.960;2023-07-20T05:34:10;8.20;;;3.80;;
68484;SDS011;55472;50.060;21.960;2023-07-20T05:36:36;8.40;;;3.75;;
68484;SDS011;55472;50.060;21.960;2023-07-20T05:39:02;8.60;;;3.70;;
68484;SDS011;55472;50.060;21.960;2023-07-20T05:41:28;9.35;;;4.07;;
68484;SDS011;55472;50.060;21.960;2023-07-20T05:43:54;11.45;;;3.72;;
68484;SDS011;55472;50.060;21.960;2023-07-20T05:46:21;8.73;;;4.18;;
68484;SDS011;55472;50.060;21.960;2023-07-20T05:48:47;6.37;;;3.80;;
68484;SDS011;55472;50.060;21.960;2023-07-20T05:51:13;10.30;;;4.53;;
68484;SDS011;55472;50.060;21.960;2023-07-20T05:53:40;7.22;;;3.75;;
68484;SDS011;55472;50.060;21.960;2023-07-20T05:56:06;8.32;;;4.10;;
68484;SDS011;55472;50.060;21.960;2023-07-20T05:58:36;8.70;;;4.07;;
68484;SDS011;55472;50.060;21.960;2023-07-20T06:01:03;10.53;;;4.40;;
68484;SDS011;55472;50.060;21.960;2023-07-20T06:03:32;6.28;;;3.92;;
68484;SDS011;55472;50.060;21.960;2023-07-20T06:06:00;10.18;;;4.68;;
68484;SDS011;55472;50.060;21.960;2023-07-20T06:08:30;8.43;;;4.40;;
68484;SDS011;55472;50.060;21.960;2023-07-20T06:10:56;12.43;;;4.45;;
68484;SDS011;55472;50.060;21.960;2023-07-20T06:13:23;8.57;;;4.17;;
68484;SDS011;55472;50.060;21.960;2023-07-20T06:15:50;11.32;;;4.70;;
68484;SDS011;55472;50.060;21.960;2023-07-20T06:18:16;9.27;;;4.60;;
68484;SDS011;55472;50.060;21.960;2023-07-20T06:20:42;12.27;;;4.30;;
68484;SDS011;55472;50.060;21.960;2023-07-20T06:23:14;8.77;;;4.35;;
68484;SDS011;55472;50.060;21.960;2023-07-20T06:25:40;8.63;;;4.00;;
68484;SDS011;55472;50.060;21.960;2023-07-20T06:28:07;7.15;;;4.07;;
68484;SDS011;55472;50.060;21.960;2023-07-20T06:30:33;8.63;;;4.20;;
68484;SDS011;55472;50.060;21.960;2023-07-20T06:33:00;8.85;;;3.95;;
68484;SDS011;55472;50.060;21.960;2023-07-20T06:35:26;8.07;;;3.67;;
68484;SDS011;55472;50.060;21.960;2023-07-20T06:37:52;9.63;;;4.10;;
68484;SDS011;55472;50.060;21.960;2023-07-20T06:40:18;13.60;;;4.53;;
68484;SDS011;55472;50.060;21.960;2023-07-20T06:42:45;11.90;;;5.10;;
68484;SDS011;55472;50.060;21.960;2023-07-20T06:45:11;9.65;;;4.63;;
68484;SDS011;55472;50.060;21.960;2023-07-20T06:47:40;6.88;;;4.22;;
68484;SDS011;55472;50.060;21.960;2023-07-20T06:50:07;8.67;;;4.57;;
68484;SDS011;55472;50.060;21.960;2023-07-20T06:52:34;9.70;;;4.18;;
68484;SDS011;55472;50.060;21.960;2023-07-20T06:55:01;7.72;;;3.85;;
68484;SDS011;55472;50.060;21.960;2023-07-20T06:57:28;8.50;;;4.20;;
68484;SDS011;55472;50.060;21.960;2023-07-20T06:59:54;6.63;;;3.92;;
68484;SDS011;55472;50.060;21.960;2023-07-20T07:02:20;7.90;;;4.10;;
68484;SDS011;55472;50.060;21.960;2023-07-20T07:04:49;8.15;;;4.35;;
68484;SDS011;55472;50.060;21.960;2023-07-20T07:07:15;9.63;;;4.93;;
68484;SDS011;55472;50.060;21.960;2023-07-20T07:09:42;9.70;;;4.55;;
68484;SDS011;55472;50.060;21.960;2023-07-20T07:12:08;10.07;;;4.63;;
68484;SDS011;55472;50.060;21.960;2023-07-20T07:14:41;8.67;;;4.30;;
68484;SDS011;55472;50.060;21.960;2023-07-20T07:17:10;9.13;;;3.90;;
68484;SDS011;55472;50.060;21.960;2023-07-20T07:19:36;9.73;;;4.53;;
68484;SDS011;55472;50.060;21.960;2023-07-20T07:22:04;8.43;;;4.25;;
68484;SDS011;55472;50.060;21.960;2023-07-20T07:24:30;9.13;;;4.45;;
68484;SDS011;55472;50.060;21.960;2023-07-20T07:27:01;8.80;;;4.70;;
68484;SDS011;55472;50.060;21.960;2023-07-20T07:29:33;10.25;;;4.68;;
68484;SDS011;55472;50.060;21.960;2023-07-20T07:32:00;9.15;;;4.00;;
68484;SDS011;55472;50.060;21.960;2023-07-20T07:34:26;9.27;;;4.43;;
68484;SDS011;55472;50.060;21.960;2023-07-20T07:36:53;8.57;;;4.55;;
68484;SDS011;55472;50.060;21.960;2023-07-20T07:39:19;9.77;;;4.10;;
68484;SDS011;55472;50.060;21.960;2023-07-20T07:41:45;10.02;;;4.90;;
68484;SDS011;55472;50.060;21.960;2023-07-20T07:44:12;11.02;;;5.43;;
68484;SDS011;55472;50.060;21.960;2023-07-20T07:46:47;9.18;;;4.88;;
68484;SDS011;55472;50.060;21.960;2023-07-20T07:49:14;12.20;;;4.82;;
68484;SDS011;55472;50.060;21.960;2023-07-20T07:51:44;11.37;;;4.83;;
68484;SDS011;55472;50.060;21.960;2023-07-20T07:54:11;8.02;;;4.40;;
68484;SDS011;55472;50.060;21.960;2023-07-20T07:56:37;10.13;;;5.20;;
68484;SDS011;55472;50.060;21.960;2023-07-20T07:59:03;9.10;;;5.20;;
68484;SDS011;55472;50.060;21.960;2023-07-20T08:01:30;9.82;;;4.80;;
68484;SDS011;55472;50.060;21.960;2023-07-20T08:03:56;9.97;;;4.90;;
68484;SDS011;55472;50.060;21.960;2023-07-20T08:06:22;10.68;;;5.10;;
68484;SDS011;55472;50.060;21.960;2023-07-20T08:08:52;8.63;;;4.63;;
68484;SDS011;55472;50.060;21.960;2023-07-20T08:11:18;11.40;;;4.78;;
68484;SDS011;55472;50.060;21.960;2023-07-20T08:13:44;10.18;;;4.65;;
68484;SDS011;55472;50.060;21.960;2023-07-20T08:16:11;8.57;;;4.57;;
68484;SDS011;55472;50.060;21.960;2023-07-20T08:18:37;9.95;;;4.78;;
68484;SDS011;55472;50.060;21.960;2023-07-20T08:21:03;9.23;;;4.97;;
68484;SDS011;55472;50.060;21.960;2023-07-20T08:23:29;12.00;;;4.93;;
68484;SDS011;55472;50.060;21.960;2023-07-20T08:25:55;9.80;;;5.13;;
68484;SDS011;55472;50.060;21.960;2023-07-20T08:28:21;9.70;;;4.67;;
68484;SDS011;55472;50.060;21.960;2023-07-20T08:30:48;11.77;;;5.10;;
68484;SDS011;55472;50.060;21.960;2023-07-20T08:33:15;10.43;;;5.32;;
68484;SDS011;55472;50.060;21.960;2023-07-20T08:35:45;9.43;;;4.90;;
68484;SDS011;55472;50.060;21.960;2023-07-20T08:38:12;9.30;;;4.80;;
68484;SDS011;55472;50.060;21.960;2023-07-20T08:40:42;11.77;;;4.60;;
68484;SDS011;55472;50.060;21.960;2023-07-20T08:43:10;10.23;;;4.60;;
68484;SDS011;55472;50.060;21.960;2023-07-20T08:45:41;9.68;;;4.80;;
68484;SDS011;55472;50.060;21.960;2023-07-20T08:48:07;13.30;;;5.10;;
68484;SDS011;55472;50.060;21.960;2023-07-20T08:50:35;12.95;;;5.10;;
68484;SDS011;55472;50.060;21.960;2023-07-20T08:53:02;7.63;;;4.30;;
68484;SDS011;55472;50.060;21.960;2023-07-20T08:55:29;8.35;;;4.32;;
68484;SDS011;55472;50.060;21.960;2023-07-20T08:57:56;7.63;;;4.38;;
68484;SDS011;55472;50.060;21.960;2023-07-20T09:00:26;9.68;;;5.05;;
68484;SDS011;55472;50.060;21.960;2023-07-20T09:02:56;8.60;;;4.68;;
68484;SDS011;55472;50.060;21.960;2023-07-20T09:05:23;6.97;;;4.03;;
68484;SDS011;55472;50.060;21.960;2023-07-20T09:07:51;7.63;;;4.50;;
68484;SDS011;55472;50.060;21.960;2023-07-20T09:10:22;8.73;;;4.30;;
68484;SDS011;55472;50.060;21.960;2023-07-20T09:12:49;8.27;;;4.00;;
68484;SDS011;55472;50.060;21.960;2023-07-20T09:15:15;7.15;;;3.80;;
68484;SDS011;55472;50.060;21.960;2023-07-20T09:17:49;7.70;;;3.53;;
68484;SDS011;55472;50.060;21.960;2023-07-20T09:20:17;7.63;;;4.10;;
68484;SDS011;55472;50.060;21.960;2023-07-20T09:22:44;8.70;;;3.72;;
68484;SDS011;55472;50.060;21.960;2023-07-20T09:25:15;7.03;;;3.88;;
68484;SDS011;55472;50.060;21.960;2023-07-20T09:27:43;6.28;;;3.90;;
68484;SDS011;55472;50.060;21.960;2023-07-20T09:30:14;7.00;;;4.20;;
68484;SDS011;55472;50.060;21.960;2023-07-20T09:32:45;7.75;;;4.28;;
68484;SDS011;55472;50.060;21.960;2023-07-20T09:35:17;12.50;;;4.55;;
68484;SDS011;55472;50.060;21.960;2023-07-20T09:40:26;8.60;;;3.92;;
68484;SDS011;55472;50.060;21.960;2023-07-20T09:42:53;6.43;;;4.07;;
68484;SDS011;55472;50.060;21.960;2023-07-20T09:45:35;7.45;;;3.80;;
68484;SDS011;55472;50.060;21.960;2023-07-20T09:48:10;7.07;;;3.78;;
68484;SDS011;55472;50.060;21.960;2023-07-20T09:50:40;6.45;;;3.75;;
68484;SDS011;55472;50.060;21.960;2023-07-20T09:53:13;7.35;;;3.70;;
68484;SDS011;55472;50.060;21.960;2023-07-20T09:55:47;8.60;;;3.33;;
68484;SDS011;55472;50.060;21.960;2023-07-20T09:58:13;6.28;;;3.70;;
68484;SDS011;55472;50.060;21.960;2023-07-20T10:00:44;7.35;;;3.70;;
68484;SDS011;55472;50.060;21.960;2023-07-20T10:03:19;9.77;;;3.92;;
68484;SDS011;55472;50.060;21.960;2023-07-20T10:05:51;5.10;;;2.70;;
68484;SDS011;55472;50.060;21.960;2023-07-20T10:08:25;7.13;;;3.13;;
68484;SDS011;55472;50.060;21.960;2023-07-20T10:10:52;7.18;;;3.60;;
68484;SDS011;55472;50.060;21.960;2023-07-20T10:13:40;5.85;;;3.20;;
68484;SDS011;55472;50.060;21.960;2023-07-20T10:16:26;5.47;;;2.92;;
68484;SDS011;55472;50.060;21.960;2023-07-20T10:19:05;5.97;;;2.90;;
68484;SDS011;55472;50.060;21.960;2023-07-20T10:21:40;6.20;;;3.03;;
68484;SDS011;55472;50.060;21.960;2023-07-20T10:24:20;5.22;;;2.83;;
68484;SDS011;55472;50.060;21.960;2023-07-20T10:27:24;6.15;;;2.83;;
68484;SDS011;55472;50.060;21.960;2023-07-20T10:29:51;7.30;;;2.70;;
68484;SDS011;55472;50.060;21.960;2023-07-20T10:35:26;6.03;;;2.70;;
68484;SDS011;55472;50.060;21.960;2023-07-20T10:37:53;6.53;;;3.40;;
68484;SDS011;55472;50.060;21.960;2023-07-20T10:40:33;8.75;;;3.33;;
68484;SDS011;55472;50.060;21.960;2023-07-20T10:43:09;5.75;;;2.90;;
68484;SDS011;55472;50.060;21.960;2023-07-20T10:45:38;5.03;;;2.42;;
68484;SDS011;55472;50.060;21.960;2023-07-20T10:48:18;7.23;;;2.60;;
68484;SDS011;55472;50.060;21.960;2023-07-20T10:51:13;5.45;;;2.70;;
68484;SDS011;55472;50.060;21.960;2023-07-20T10:57:00;4.55;;;2.70;;
68484;SDS011;55472;50.060;21.960;2023-07-20T11:00:07;6.60;;;2.70;;
68484;SDS011;55472;50.060;21.960;2023-07-20T11:02:45;5.53;;;2.80;;
68484;SDS011;55472;50.060;21.960;2023-07-20T11:08:38;5.70;;;2.78;;
68484;SDS011;55472;50.060;21.960;2023-07-20T11:11:29;4.85;;;2.67;;
68484;SDS011;55472;50.060;21.960;2023-07-20T11:14:00;5.85;;;2.83;;
68484;SDS011;55472;50.060;21.960;2023-07-20T11:16:37;6.03;;;2.83;;
68484;SDS011;55472;50.060;21.960;2023-07-20T11:19:05;5.72;;;2.53;;
68484;SDS011;55472;50.060;21.960;2023-07-20T11:21:42;6.18;;;2.58;;
68484;SDS011;55472;50.060;21.960;2023-07-20T11:24:13;4.82;;;1.92;;
68484;SDS011;55472;50.060;21.960;2023-07-20T11:27:05;3.60;;;2.00;;
68484;SDS011;55472;50.060;21.960;2023-07-20T11:29:31;4.63;;;2.20;;
68484;SDS011;55472;50.060;21.960;2023-07-20T11:32:00;4.32;;;2.25;;
68484;SDS011;55472;50.060;21.960;2023-07-20T11:34:29;4.25;;;2.20;;
68484;SDS011;55472;50.060;21.960;2023-07-20T11:36:59;6.03;;;2.30;;
68484;SDS011;55472;50.060;21.960;2023-07-20T11:39:25;4.93;;;2.10;;
68484;SDS011;55472;50.060;21.960;2023-07-20T11:47:16;3.92;;;1.80;;
68484;SDS011;55472;50.060;21.960;2023-07-20T11:49:43;4.18;;;1.80;;
68484;SDS011;55472;50.060;21.960;2023-07-20T11:52:15;4.93;;;2.08;;
68484;SDS011;55472;50.060;21.960;2023-07-20T11:54:42;5.03;;;1.93;;
68484;SDS011;55472;50.060;21.960;2023-07-20T11:57:18;3.75;;;1.90;;
68484;SDS011;55472;50.060;21.960;2023-07-20T11:59:54;4.35;;;1.90;;
68484;SDS011;55472;50.060;21.960;2023-07-20T12:02:34;3.85;;;1.70;;
68484;SDS011;55472;50.060;21.960;2023-07-20T12:05:03;4.93;;;1.75;;
68484;SDS011;55472;50.060;21.960;2023-07-20T12:07:34;3.70;;;1.70;;
68484;SDS011;55472;50.060;21.960;2023-07-20T12:10:09;3.60;;;1.60;;
68484;SDS011;55472;50.060;21.960;2023-07-20T12:12:37;5.28;;;1.63;;
68484;SDS011;55472;50.060;21.960;2023-07-20T12:15:12;3.22;;;1.40;;
68484;SDS011;55472;50.060;21.960;2023-07-20T12:17:50;3.20;;;1.50;;
68484;SDS011;55472;50.060;21.960;2023-07-20T12:23:01;5.50;;;1.38;;
68484;SDS011;55472;50.060;21.960;2023-07-20T12:25:45;4.68;;;1.50;;
68484;SDS011;55472;50.060;21.960;2023-07-20T12:28:16;3.10;;;1.30;;
68484;SDS011;55472;50.060;21.960;2023-07-20T12:30:45;3.55;;;1.30;;
68484;SDS011;55472;50.060;21.960;2023-07-20T12:33:12;3.30;;;1.50;;
68484;SDS011;55472;50.060;21.960;2023-07-20T12:35:42;3.63;;;1.63;;
68484;SDS011;55472;50.060;21.960;2023-07-20T12:38:09;3.30;;;1.38;;
68484;SDS011;55472;50.060;21.960;2023-07-20T12:40:35;3.30;;;1.27;;
68484;SDS011;55472;50.060;21.960;2023-07-20T12:43:01;3.83;;;1.50;;
68484;SDS011;55472;50.060;21.960;2023-07-20T12:45:29;4.43;;;1.30;;
68484;SDS011;55472;50.060;21.960;2023-07-20T12:47:55;2.92;;;1.35;;
68484;SDS011;55472;50.060;21.960;2023-07-20T12:50:21;3.33;;;1.40;;
68484;SDS011;55472;50.060;21.960;2023-07-20T12:52:47;3.85;;;1.27;;
68484;SDS011;55472;50.060;21.960;2023-07-20T12:55:13;3.80;;;1.30;;
68484;SDS011;55472;50.060;21.960;2023-07-20T12:57:40;3.30;;;1.40;;
68484;SDS011;55472;50.060;21.960;2023-07-20T13:00:08;3.47;;;1.30;;
68484;SDS011;55472;50.060;21.960;2023-07-20T13:02:37;4.22;;;1.40;;
68484;SDS011;55472;50.060;21.960;2023-07-20T13:05:04;3.95;;;1.65;;
68484;SDS011;55472;50.060;21.960;2023-07-20T13:07:31;3.80;;;1.30;;
68484;SDS011;55472;50.060;21.960;2023-07-20T13:09:59;5.13;;;1.35;;
68484;SDS011;55472;50.060;21.960;2023-07-20T13:12:27;3.95;;;1.52;;
68484;SDS011;55472;50.060;21.960;2023-07-20T13:14:54;4.88;;;1.38;;
68484;SDS011;55472;50.060;21.960;2023-07-20T13:17:24;3.88;;;1.40;;
68484;SDS011;55472;50.060;21.960;2023-07-20T13:19:50;3.43;;;1.33;;
68484;SDS011;55472;50.060;21.960;2023-07-20T13:22:17;5.15;;;1.60;;
68484;SDS011;55472;50.060;21.960;2023-07-20T13:24:44;4.72;;;1.48;;
68484;SDS011;55472;50.060;21.960;2023-07-20T13:27:15;3.22;;;1.35;;
68484;SDS011;55472;50.060;21.960;2023-07-20T13:29:44;4.00;;;1.48;;
68484;SDS011;55472;50.060;21.960;2023-07-20T13:32:15;3.93;;;1.40;;
68484;SDS011;55472;50.060;21.960;2023-07-20T13:34:43;3.85;;;1.55;;
68484;SDS011;55472;50.060;21.960;2023-07-20T13:37:10;3.00;;;1.23;;
68484;SDS011;55472;50.060;21.960;2023-07-20T13:39:38;4.13;;;1.20;;
68484;SDS011;55472;50.060;21.960;2023-07-20T13:42:04;3.22;;;1.55;;
68484;SDS011;55472;50.060;21.960;2023-07-20T13:44:31;3.67;;;1.60;;
68484;SDS011;55472;50.060;21.960;2023-07-20T13:46:58;4.85;;;1.50;;
68484;SDS011;55472;50.060;21.960;2023-07-20T13:49:25;3.42;;;1.35;;
68484;SDS011;55472;50.060;21.960;2023-07-20T13:51:51;3.45;;;1.40;;
68484;SDS011;55472;50.060;21.960;2023-07-20T13:54:17;3.20;;;1.25;;
68484;SDS011;55472;50.060;21.960;2023-07-20T13:56:43;5.10;;;1.30;;
68484;SDS011;55472;50.060;21.960;2023-07-20T13:59:09;5.20;;;1.70;;
68484;SDS011;55472;50.060;21.960;2023-07-20T14:01:35;4.97;;;1.50;;
68484;SDS011;55472;50.060;21.960;2023-07-20T14:04:02;4.18;;;1.73;;
68484;SDS011;55472;50.060;21.960;2023-07-20T14:06:32;6.18;;;1.50;;
68484;SDS011;55472;50.060;21.960;2023-07-20T14:08:59;4.70;;;1.40;;
68484;SDS011;55472;50.060;21.960;2023-07-20T14:11:26;5.68;;;1.58;;
68484;SDS011;55472;50.060;21.960;2023-07-20T14:13:52;5.13;;;1.60;;
68484;SDS011;55472;50.060;21.960;2023-07-20T14:16:20;2.80;;;1.30;;
68484;SDS011;55472;50.060;21.960;2023-07-20T14:18:49;3.40;;;1.40;;
68484;SDS011;55472;50.060;21.960;2023-07-20T14:21:16;3.10;;;1.30;;
68484;SDS011;55472;50.060;21.960;2023-07-20T14:23:45;3.03;;;1.48;;
68484;SDS011;55472;50.060;21.960;2023-07-20T14:26:13;3.42;;;1.33;;
68484;SDS011;55472;50.060;21.960;2023-07-20T14:28:39;3.50;;;1.50;;
68484;SDS011;55472;50.060;21.960;2023-07-20T14:31:06;4.97;;;1.42;;
68484;SDS011;55472;50.060;21.960;2023-07-20T14:33:32;3.83;;;1.33;;
68484;SDS011;55472;50.060;21.960;2023-07-20T14:35:58;3.38;;;1.48;;
68484;SDS011;55472;50.060;21.960;2023-07-20T14:38:27;4.20;;;1.35;;
68484;SDS011;55472;50.060;21.960;2023-07-20T14:40:57;3.17;;;1.40;;
68484;SDS011;55472;50.060;21.960;2023-07-20T14:43:23;3.75;;;1.60;;
68484;SDS011;55472;50.060;21.960;2023-07-20T14:45:49;4.37;;;1.80;;
68484;SDS011;55472;50.060;21.960;2023-07-20T14:48:16;3.85;;;1.60;;
68484;SDS011;55472;50.060;21.960;2023-07-20T14:50:42;3.58;;;1.42;;
68484;SDS011;55472;50.060;21.960;2023-07-20T14:53:11;2.67;;;1.33;;
68484;SDS011;55472;50.060;21.960;2023-07-20T14:55:38;4.45;;;1.77;;
68484;SDS011;55472;50.060;21.960;2023-07-20T14:58:05;3.63;;;1.40;;
68484;SDS011;55472;50.060;21.960;2023-07-20T15:00:31;3.40;;;1.45;;
68484;SDS011;55472;50.060;21.960;2023-07-20T15:02:57;4.20;;;1.80;;
68484;SDS011;55472;50.060;21.960;2023-07-20T15:05:24;3.65;;;1.40;;
68484;SDS011;55472;50.060;21.960;2023-07-20T15:07:52;4.47;;;1.50;;
68484;SDS011;55472;50.060;21.960;2023-07-20T15:10:19;3.10;;;1.37;;